createdAt,value
2019-01-17T00:03:10.158Z,1.9
2019-01-17T00:06:58.437Z,2.41
2019-01-17T00:11:40.879Z,1.66
2019-01-17T00:15:39.971Z,1.42
2019-01-17T00:19:49.272Z,2.21
2019-01-17T00:26:00.065Z,2.69
2019-01-17T00:29:47.876Z,1.74
2019-01-17T00:33:31.868Z,2.44
2019-01-17T00:39:28.901Z,2
2019-01-17T00:45:43.990Z,1.64
2019-01-17T00:49:32.820Z,2.23
2019-01-17T00:53:17.446Z,2.69
2019-01-17T01:00:22.340Z,2.95
2019-01-17T01:07:45.242Z,2.12
2019-01-17T01:16:43.047Z,3.94
2019-01-17T01:20:22.707Z,4.04
2019-01-17T01:24:20.721Z,2.75
2019-01-17T01:28:07.140Z,3.01
2019-01-17T01:32:00.812Z,3.36
2019-01-17T01:35:39.172Z,2.75
2019-01-17T01:39:22.614Z,3.21
2019-01-17T01:43:03.439Z,2.44
2019-01-17T01:46:45.631Z,2.6
2019-01-17T01:53:27.891Z,2.58
2019-01-17T01:56:57.894Z,2.39
2019-01-17T02:00:17.045Z,6.66
2019-01-17T02:03:47.135Z,2.77
2019-01-17T02:07:17.304Z,4.1
2019-01-17T02:10:47.344Z,3.33
2019-01-17T02:14:18.043Z,3.48
2019-01-17T02:17:48.143Z,2.69
2019-01-17T02:21:18.276Z,3.65
2019-01-17T02:24:48.248Z,3.34
2019-01-17T02:28:18.392Z,3.09
2019-01-17T02:31:48.477Z,4.1
2019-01-17T02:35:19.599Z,3.05
2019-01-17T02:38:49.727Z,2.1
2019-01-17T02:42:19.887Z,3.26
2019-01-17T02:45:50.042Z,2.74
2019-01-17T02:49:20.114Z,3.26
2019-01-17T02:52:50.222Z,3.49
2019-01-17T02:56:20.217Z,3.35
2019-01-17T02:59:50.245Z,5.15
2019-01-17T03:03:20.300Z,3.76
2019-01-17T03:06:50.332Z,4.86
2019-01-17T03:10:20.420Z,3.99
2019-01-17T03:13:50.411Z,2.88
2019-01-17T03:17:20.513Z,3.62
2019-01-17T03:20:50.638Z,2.58
2019-01-17T03:24:20.741Z,3.16
2019-01-17T03:27:50.833Z,2.85
2019-01-17T03:31:20.947Z,2.88
2019-01-17T03:34:51.008Z,2.38
2019-01-17T03:38:21.307Z,2.49
2019-01-17T03:41:51.541Z,2.42
2019-01-17T03:45:21.624Z,2.5
2019-01-17T03:48:51.608Z,2.67
2019-01-17T03:52:21.761Z,2.88
2019-01-17T03:55:52.026Z,2.49
2019-01-17T03:59:22.208Z,2.39
2019-01-17T04:00:18.271Z,2.47
2019-01-17T04:03:48.314Z,2.33
2019-01-17T04:07:18.448Z,2.28
2019-01-17T04:10:48.511Z,2.9
2019-01-17T04:14:18.558Z,2.7
2019-01-17T04:17:48.762Z,2.45
2019-01-17T04:21:18.823Z,2.61
2019-01-17T04:24:48.916Z,2.54
2019-01-17T04:28:19.170Z,3.65
2019-01-17T04:31:49.101Z,3.17
2019-01-17T04:35:19.128Z,3.19
2019-01-17T04:38:50.154Z,3.6
2019-01-17T04:42:20.289Z,2.98
2019-01-17T04:45:50.319Z,2.44
2019-01-17T04:49:20.520Z,3.15
2019-01-17T04:52:50.516Z,2.76
2019-01-17T04:56:20.581Z,2.54
2019-01-17T04:59:50.661Z,3.4
2019-01-17T05:03:20.747Z,3.05
2019-01-17T05:06:50.821Z,10.04
2019-01-17T05:10:20.896Z,3.2
2019-01-17T05:13:50.819Z,3.64
2019-01-17T05:17:20.814Z,2.3
2019-01-17T05:20:50.856Z,2.49
2019-01-17T05:24:20.952Z,1.99
2019-01-17T05:27:51.055Z,2.12
2019-01-17T05:31:21.168Z,2.61
2019-01-17T05:34:51.231Z,4.97
2019-01-17T05:38:21.225Z,3.81
2019-01-17T05:41:51.458Z,3.86
2019-01-17T05:45:21.722Z,4.84
2019-01-17T05:48:51.785Z,3.05
2019-01-17T05:52:21.881Z,2.45
2019-01-17T05:55:51.893Z,3.5
2019-01-17T05:59:21.967Z,2.35
2019-01-17T06:00:18.449Z,2.64
2019-01-17T06:03:48.451Z,2.53
2019-01-17T06:07:18.556Z,2.86
2019-01-17T06:10:48.739Z,2.58
2019-01-17T06:14:18.883Z,4.22
2019-01-17T06:17:48.958Z,4.7
2019-01-17T06:21:19.010Z,3.35
2019-01-17T06:24:49.144Z,4.33
2019-01-17T06:28:19.198Z,13.78
2019-01-17T06:31:49.222Z,12.77
2019-01-17T06:35:19.316Z,13.61
2019-01-17T06:38:49.329Z,7.98
2019-01-17T06:42:19.423Z,14.59
2019-01-17T06:45:49.443Z,11.05
2019-01-17T06:49:19.471Z,15.6
2019-01-17T06:52:49.525Z,7.76
2019-01-17T06:56:19.745Z,4.35
2019-01-17T06:59:49.873Z,3.5
2019-01-17T07:03:20.007Z,2.91
2019-01-17T07:06:50.120Z,20.7
2019-01-17T07:10:20.244Z,18.61
2019-01-17T07:13:50.247Z,15.7
2019-01-17T07:17:20.371Z,17.75
2019-01-17T07:20:50.355Z,20.29
2019-01-17T07:24:20.450Z,18.45
2019-01-17T07:27:50.513Z,13.35
2019-01-17T07:31:20.637Z,10.34
2019-01-17T07:34:50.711Z,8.6
2019-01-17T07:38:20.844Z,16.83
2019-01-17T07:41:51.378Z,18.19
2019-01-17T07:45:25.112Z,13.47
2019-01-17T07:48:55.266Z,9.91
2019-01-17T07:52:25.380Z,6.76
2019-01-17T07:55:55.374Z,3.74
2019-01-17T07:59:25.480Z,5.84
2019-01-17T08:00:18.592Z,5.12
2019-01-17T08:03:48.613Z,5.05
2019-01-17T08:07:18.697Z,6.14
2019-01-17T08:10:48.840Z,6.59
2019-01-17T08:14:19.124Z,7.16
2019-01-17T08:17:49.370Z,6.16
2019-01-17T08:21:19.392Z,7.69
2019-01-17T08:24:49.476Z,11.44
2019-01-17T08:28:19.550Z,5.61
2019-01-17T08:31:49.584Z,5.6
2019-01-17T08:35:19.942Z,8.44
2019-01-17T08:38:49.932Z,2.48
2019-01-17T08:42:19.926Z,2.44
2019-01-17T08:45:50.909Z,2.77
2019-01-17T08:49:21.163Z,2.78
2019-01-17T08:52:51.277Z,2.77
2019-01-17T08:56:21.451Z,3.78
2019-01-17T08:59:51.482Z,2.05
2019-01-17T09:03:21.670Z,3.58
2019-01-17T09:06:51.763Z,3.8
2019-01-17T09:10:24.629Z,2.19
2019-01-17T09:13:54.642Z,2.75
2019-01-17T09:17:24.785Z,2.64
2019-01-17T09:20:54.959Z,3.76
2019-01-17T09:24:25.032Z,3.3
2019-01-17T09:27:55.067Z,3.11
2019-01-17T09:31:25.211Z,2.89
2019-01-17T09:34:55.264Z,3.65
2019-01-17T09:38:25.328Z,3.95
2019-01-17T09:41:55.322Z,3.95
2019-01-17T09:45:25.466Z,5.44
2019-01-17T09:48:57.161Z,4.78
2019-01-17T09:52:27.275Z,3.46
2019-01-17T09:55:57.278Z,4.34
2019-01-17T09:59:27.372Z,4.84
2019-01-17T10:00:19.793Z,4.34
2019-01-17T10:03:49.969Z,4.86
2019-01-17T10:07:20.141Z,3.95
2019-01-17T10:29:42.109Z,7.49
2019-01-17T10:33:19.931Z,7.85
2019-01-17T10:37:23.045Z,4.19
2019-01-17T10:41:54.670Z,5.36
2019-01-17T10:45:35.535Z,5.28
2019-01-17T10:49:15.339Z,5.03
2019-01-17T10:53:28.303Z,5.97
2019-01-17T10:59:48.161Z,10.31
2019-01-17T11:03:40.556Z,5.11
2019-01-17T11:07:28.000Z,6.6
2019-01-17T11:11:13.556Z,6.22
2019-01-17T11:14:58.039Z,8.22
2019-01-17T11:20:23.471Z,6.85
2019-01-17T11:24:02.860Z,7.66
2019-01-17T11:28:55.105Z,6.49
2019-01-17T11:33:10.431Z,7.71
2019-01-17T11:37:27.606Z,6.83
2019-01-17T11:42:27.038Z,9.74
2019-01-17T11:46:08.676Z,7.16
2019-01-17T11:50:04.821Z,6.32
2019-01-17T11:53:58.705Z,5.53
2019-01-17T11:57:44.110Z,6.58
2019-01-17T12:00:37.484Z,6.33
2019-01-17T12:05:02.079Z,8.31
2019-01-17T12:08:32.213Z,9.14
2019-01-17T12:12:03.178Z,10.53
2019-01-17T12:15:33.382Z,14.93
2019-01-17T12:19:03.516Z,11.61
2019-01-17T12:22:33.692Z,12.88
2019-01-17T12:26:03.804Z,13.68
2019-01-17T12:29:33.998Z,9.45
2019-01-17T12:33:04.153Z,9.38
2019-01-17T12:36:34.307Z,8.12
2019-01-17T12:40:05.752Z,6.21
2019-01-17T12:43:35.966Z,8.57
2019-01-17T12:47:06.080Z,6.58
2019-01-17T12:50:36.384Z,6.01
2019-01-17T12:54:06.399Z,9.86
2019-01-17T12:57:36.513Z,5.38
2019-01-17T13:01:06.794Z,6.74
2019-01-17T13:04:37.047Z,4.39
2019-01-17T13:08:07.235Z,4.12
2019-01-17T13:11:37.440Z,4.34
2019-01-17T13:15:09.254Z,3.65
2019-01-17T13:18:39.408Z,6.03
2019-01-17T13:22:09.583Z,4.21
2019-01-17T13:25:39.856Z,5.14
2019-01-17T13:29:09.883Z,5.09
2019-01-17T13:32:40.014Z,8.11
2019-01-17T13:36:13.308Z,5.64
2019-01-17T13:39:43.472Z,4.27
2019-01-17T13:43:13.537Z,4.91
2019-01-17T13:46:43.651Z,6.44
2019-01-17T13:50:14.225Z,20.49
2019-01-17T13:53:45.309Z,6.49
2019-01-17T13:57:15.423Z,3.16
2019-01-17T14:00:19.807Z,4.45
2019-01-17T14:03:49.871Z,8.45
2019-01-17T14:07:20.054Z,7.84
2019-01-17T14:10:50.179Z,9.31
2019-01-17T14:14:20.323Z,9.94
2019-01-17T14:17:50.377Z,9.01
2019-01-17T14:21:25.467Z,11.57
2019-01-17T14:24:55.662Z,5.29
2019-01-17T14:28:25.711Z,11.74
2019-01-17T14:31:55.744Z,11
2019-01-17T14:35:25.858Z,11.89
2019-01-17T14:38:55.861Z,14.66
2019-01-17T14:42:25.876Z,9.82
2019-01-17T14:45:56.061Z,12.16
2019-01-17T14:49:26.314Z,15.21
2019-01-17T14:52:56.539Z,14.81
2019-01-17T14:56:26.792Z,20.41
2019-01-17T14:59:56.896Z,13.86
2019-01-17T15:03:26.940Z,9.35
2019-01-17T15:06:57.026Z,6.5
2019-01-17T15:10:30.788Z,4.75
2019-01-17T15:14:00.903Z,4.08
2019-01-17T15:17:31.076Z,3.71
2019-01-17T15:21:01.090Z,2.84
2019-01-17T15:24:31.254Z,2.45
2019-01-17T15:28:01.409Z,3.49
2019-01-17T15:31:31.510Z,3.98
2019-01-17T15:35:01.515Z,4
2019-01-17T15:38:31.670Z,3.15
2019-01-17T15:42:01.773Z,3.85
2019-01-17T15:45:31.917Z,7.09
2019-01-17T15:49:01.998Z,4.7
2019-01-17T15:52:32.075Z,5.55
2019-01-17T15:56:02.109Z,6.05
2019-01-17T15:59:33.253Z,7.58
2019-01-17T16:00:19.794Z,4.54
2019-01-17T16:03:49.883Z,3.88
2019-01-17T16:07:19.951Z,4.81
2019-01-17T16:10:50.025Z,4.89
2019-01-17T16:14:20.130Z,5.54
2019-01-17T16:17:50.192Z,4.54
2019-01-17T16:21:20.357Z,5.15
2019-01-17T16:24:50.421Z,4.65
2019-01-17T16:28:20.645Z,4.05
2019-01-17T16:31:50.758Z,4.03
2019-01-17T16:35:20.832Z,4.43
2019-01-17T16:38:50.916Z,3.59
2019-01-17T16:42:21.020Z,3.68
2019-01-17T16:45:51.046Z,3.51
2019-01-17T16:49:21.138Z,4.3
2019-01-17T16:52:51.296Z,3.76
2019-01-17T16:56:21.331Z,3.39
2019-01-17T16:59:52.299Z,3.49
2019-01-17T17:03:22.336Z,3.99
2019-01-17T17:06:52.417Z,4.78
2019-01-17T17:10:22.521Z,9.05
2019-01-17T17:13:52.635Z,6.39
2019-01-17T17:17:22.648Z,4.47
2019-01-17T17:20:52.792Z,4.94
2019-01-17T17:24:22.906Z,3.08
2019-01-17T17:27:55.703Z,5.6
2019-01-17T17:31:26.034Z,9.95
2019-01-17T17:34:56.108Z,8.26
2019-01-17T17:38:26.202Z,17.99
2019-01-17T17:41:56.146Z,9.89
2019-01-17T17:45:28.360Z,10.56
2019-01-17T17:48:58.603Z,10.41
2019-01-17T17:52:28.650Z,7.59
2019-01-17T17:55:58.911Z,5.32
2019-01-17T17:59:29.024Z,3.46
2019-01-17T18:00:23.766Z,8.21
2019-01-17T18:03:53.820Z,2.47
2019-01-17T18:07:23.945Z,5.8
2019-01-17T18:10:54.027Z,5.3
2019-01-17T18:14:24.171Z,7.33
2019-01-17T18:17:54.246Z,7.33
2019-01-17T18:21:24.528Z,4.36
2019-01-17T18:24:54.623Z,7.58
2019-01-17T18:28:24.747Z,5.88
2019-01-17T18:31:54.770Z,6.7
2019-01-17T18:35:24.914Z,6.79
2019-01-17T18:38:54.958Z,5.42
2019-01-17T18:42:25.014Z,4.2
2019-01-17T18:45:55.136Z,7.83
2019-01-17T18:49:25.271Z,6.97
2019-01-17T18:52:55.383Z,7.4
2019-01-17T18:56:25.501Z,4.5
2019-01-17T18:59:55.661Z,9.39
2019-01-17T19:03:26.725Z,6.04
2019-01-17T19:06:56.869Z,5.9
2019-01-17T19:10:27.063Z,7.88
2019-01-17T19:13:57.221Z,7.81
2019-01-17T19:17:27.361Z,8.06
2019-01-17T19:20:57.425Z,7.28
2019-01-17T19:24:27.530Z,9.1
2019-01-17T19:27:57.604Z,6.76
2019-01-17T19:31:27.701Z,6.31
2019-01-17T19:34:57.810Z,5.67
2019-01-17T19:38:27.884Z,4.97
2019-01-17T19:41:57.858Z,7.35
2019-01-17T19:45:28.082Z,5.81
2019-01-17T19:48:58.136Z,6.22
2019-01-17T19:52:28.410Z,5.59
2019-01-17T19:55:58.444Z,7.18
2019-01-17T19:59:28.527Z,8.29
2019-01-17T20:00:17.478Z,9.9
2019-01-17T20:03:48.442Z,9.74
2019-01-17T20:07:18.586Z,9.41
2019-01-17T20:10:48.590Z,7.82
2019-01-17T20:14:18.894Z,4.44
2019-01-17T20:17:49.088Z,5.91
2019-01-17T20:21:19.222Z,7.06
2019-01-17T20:24:49.216Z,7.7
2019-01-17T20:28:19.389Z,5.46
2019-01-17T20:31:49.524Z,3.65
2019-01-17T20:35:19.627Z,6.74
2019-01-17T20:38:49.750Z,8.03
2019-01-17T20:42:19.915Z,5.81
2019-01-17T20:45:49.999Z,8.47
2019-01-17T20:49:20.153Z,6.91
2019-01-17T20:52:50.396Z,8.16
2019-01-17T20:56:20.450Z,7.84
2019-01-17T20:59:50.488Z,12.01
2019-01-17T21:03:20.608Z,6.97
2019-01-17T21:06:51.692Z,5.39
2019-01-17T21:10:21.846Z,4.04
2019-01-17T21:13:51.880Z,6.19
2019-01-17T21:17:21.984Z,10
2019-01-17T21:20:51.948Z,8.26
2019-01-17T21:24:22.121Z,3.38
2019-01-17T21:27:52.126Z,4.03
2019-01-17T21:31:22.291Z,6.49
2019-01-17T21:34:52.401Z,4.47
2019-01-17T21:38:22.547Z,6.55
2019-01-17T21:41:52.562Z,3.77
2019-01-17T21:45:22.706Z,6.26
2019-01-17T21:48:52.707Z,8.64
2019-01-17T21:52:22.802Z,6.96
2019-01-17T21:55:52.897Z,6.81
2019-01-17T21:59:22.930Z,6.78
2019-01-17T22:00:19.821Z,3.99
2019-01-17T22:03:49.935Z,5.5
2019-01-17T22:07:21.800Z,6.51
2019-01-17T22:10:51.874Z,6.46
2019-01-17T22:14:22.008Z,5.86
2019-01-17T22:17:52.236Z,3.4
2019-01-17T22:21:22.384Z,2.98
2019-01-17T22:24:52.337Z,6.53
2019-01-17T22:28:22.462Z,4.52
2019-01-17T22:31:52.536Z,5.47
2019-01-17T22:35:22.689Z,2.79
2019-01-17T22:38:52.825Z,4.4
2019-01-17T22:42:23.037Z,6.97
2019-01-17T22:45:53.072Z,5.93
2019-01-17T22:49:23.225Z,4.44
2019-01-17T22:52:53.450Z,6.08
2019-01-17T22:56:23.553Z,3.48
2019-01-17T22:59:53.597Z,6.97
2019-01-17T23:03:27.570Z,4.18
2019-01-17T23:06:57.634Z,3.75
2019-01-17T23:10:28.808Z,3.5
2019-01-17T23:13:58.912Z,3.92
2019-01-17T23:17:29.135Z,4.42
2019-01-17T23:20:59.160Z,2.96
2019-01-17T23:24:29.253Z,4.6
2019-01-17T23:27:59.360Z,3.59
2019-01-17T23:31:29.473Z,4.61
2019-01-17T23:34:59.505Z,3.7
2019-01-17T23:38:29.638Z,3.46
2019-01-17T23:41:59.783Z,3.33
2019-01-17T23:45:29.906Z,4.6
2019-01-17T23:48:59.942Z,4.19
2019-01-17T23:52:30.094Z,4.12
2019-01-17T23:56:00.118Z,2.75
2019-01-17T23:59:30.252Z,3.39
